createdAt,value
2017-12-04T00:02:24.766Z,27.25
2017-12-04T00:04:52.371Z,24.42
2017-12-04T00:07:20.783Z,23.83
2017-12-04T00:09:48.341Z,26.23
2017-12-04T00:12:15.970Z,26.33
2017-12-04T00:14:43.616Z,26.67
2017-12-04T00:17:11.222Z,26.62
2017-12-04T00:19:38.809Z,26.67
2017-12-04T00:22:06.460Z,25.65
2017-12-04T00:24:34.061Z,26.08
2017-12-04T00:27:01.705Z,27.30
2017-12-04T00:29:29.314Z,29.00
2017-12-04T00:31:57.675Z,27.40
2017-12-04T00:34:25.306Z,27.60
2017-12-04T00:36:52.949Z,26.23
2017-12-04T00:39:20.579Z,25.65
2017-12-04T00:41:48.209Z,28.38
2017-12-04T00:44:15.870Z,27.90
2017-12-04T00:46:43.518Z,26.77
2017-12-04T00:49:11.394Z,28.30
2017-12-04T00:51:39.043Z,28.85
2017-12-04T00:54:06.785Z,28.87
2017-12-04T00:56:34.460Z,28.50
2017-12-04T00:59:02.217Z,29.83
2017-12-04T01:01:29.908Z,29.85
2017-12-04T01:03:57.600Z,29.75
2017-12-04T01:06:25.955Z,30.10
2017-12-04T01:08:53.498Z,29.52
2017-12-04T01:11:21.831Z,30.67
2017-12-04T01:13:50.160Z,30.10
2017-12-04T01:16:17.722Z,28.95
2017-12-04T01:18:45.285Z,28.08
2017-12-04T01:21:12.842Z,28.30
2017-12-04T01:23:40.414Z,30.30
2017-12-04T01:26:07.988Z,30.55
2017-12-04T01:28:35.554Z,29.98
2017-12-04T01:31:03.119Z,28.80
2017-12-04T01:33:31.461Z,29.90
2017-12-04T01:35:59.009Z,28.77
2017-12-04T01:38:26.574Z,28.05
2017-12-04T01:40:54.119Z,27.75
2017-12-04T01:43:21.717Z,28.73
2017-12-04T01:45:49.273Z,28.20
2017-12-04T01:48:16.847Z,27.55
2017-12-04T01:50:44.394Z,27.73
2017-12-04T01:53:11.952Z,29.90
2017-12-04T01:55:39.548Z,29.55
2017-12-04T01:58:07.874Z,29.00
2017-12-04T02:00:35.436Z,27.80
2017-12-04T02:03:03.001Z,30.45
2017-12-04T02:05:30.542Z,29.08
2017-12-04T02:07:58.106Z,30.70
2017-12-04T02:10:25.667Z,29.60
2017-12-04T02:12:53.258Z,29.60
2017-12-04T02:15:20.844Z,30.27
2017-12-04T02:17:49.188Z,28.92
2017-12-04T02:20:16.790Z,30.45
2017-12-04T02:22:45.166Z,29.77
2017-12-04T02:25:13.594Z,31.17
2017-12-04T02:27:41.185Z,30.62
2017-12-04T02:30:08.811Z,29.67
2017-12-04T02:32:36.406Z,28.77
2017-12-04T02:35:04.023Z,31.67
2017-12-04T02:37:31.611Z,30.40
2017-12-04T02:39:59.201Z,29.15
2017-12-04T02:42:27.543Z,30.70
2017-12-04T02:44:55.189Z,28.50
2017-12-04T02:47:22.765Z,30.90
2017-12-04T02:49:50.385Z,30.08
2017-12-04T02:52:17.966Z,30.25
2017-12-04T02:54:45.557Z,29.40
2017-12-04T02:57:13.172Z,27.87
2017-12-04T02:59:40.818Z,29.40
2017-12-04T03:02:08.379Z,28.67
2017-12-04T03:04:35.948Z,28.80
2017-12-04T03:07:03.553Z,29.42
2017-12-04T03:09:31.131Z,30.15
2017-12-04T03:11:58.733Z,27.48
2017-12-04T03:14:26.309Z,30.55
2017-12-04T03:16:53.924Z,28.15
2017-12-04T03:19:21.495Z,29.85
2017-12-04T03:21:49.856Z,27.55
2017-12-04T03:24:17.438Z,28.05
2017-12-04T03:26:45.773Z,28.38
2017-12-04T03:29:14.093Z,30.55
2017-12-04T03:31:42.446Z,27.90
2017-12-04T03:34:10.005Z,28.80
2017-12-04T03:36:37.589Z,29.40
2017-12-04T03:39:05.158Z,29.05
2017-12-04T03:41:33.478Z,28.40
2017-12-04T03:44:01.028Z,28.05
2017-12-04T03:46:28.586Z,27.80
2017-12-04T03:48:56.173Z,28.50
2017-12-04T03:51:23.742Z,26.90
2017-12-04T03:53:51.317Z,26.80
2017-12-04T03:56:18.890Z,27.40
2017-12-04T03:58:47.256Z,27.25
2017-12-04T04:01:14.836Z,26.65
2017-12-04T04:03:43.179Z,28.87
2017-12-04T04:06:10.737Z,27.98
2017-12-04T04:08:38.287Z,27.67
2017-12-04T04:11:05.848Z,28.02
2017-12-04T04:13:33.421Z,27.13
2017-12-04T04:16:01.007Z,26.30
2017-12-04T04:18:29.387Z,27.02
2017-12-04T04:20:57.761Z,28.45
2017-12-04T04:23:26.125Z,28.17
2017-12-04T04:25:53.703Z,28.20
2017-12-04T04:28:22.048Z,25.23
2017-12-04T04:30:49.613Z,26.73
2017-12-04T04:33:17.179Z,25.75
2017-12-04T04:35:44.744Z,27.10
2017-12-04T04:38:12.319Z,26.30
2017-12-04T04:40:40.660Z,23.80
2017-12-04T04:43:08.241Z,25.37
2017-12-04T04:45:35.808Z,26.70
2017-12-04T04:48:03.391Z,25.40
2017-12-04T04:50:31.720Z,25.20
2017-12-04T04:52:59.305Z,25.00
2017-12-04T04:55:26.877Z,25.90
2017-12-04T04:57:55.210Z,24.85
2017-12-04T05:00:22.805Z,22.90
2017-12-04T05:02:50.361Z,23.80
2017-12-04T05:05:17.958Z,23.48
2017-12-04T05:07:45.505Z,24.25
2017-12-04T05:10:13.843Z,26.23
2017-12-04T05:12:41.424Z,24.92
2017-12-04T05:15:08.989Z,25.20
2017-12-04T05:17:37.327Z,24.67
2017-12-04T05:20:04.882Z,23.77
2017-12-04T05:22:32.517Z,25.17
2017-12-04T05:25:00.097Z,27.08
2017-12-04T05:27:27.689Z,28.05
2017-12-04T05:29:55.300Z,30.77
2017-12-04T05:32:22.882Z,39.50
2017-12-04T05:34:50.444Z,27.87
2017-12-04T05:37:18.073Z,28.33
2017-12-04T05:39:46.402Z,25.17
2017-12-04T05:42:13.987Z,27.40
2017-12-04T05:44:41.590Z,28.60
2017-12-04T05:47:09.172Z,26.87
2017-12-04T05:49:36.729Z,30.62
2017-12-04T05:52:04.317Z,27.40
2017-12-04T05:54:31.885Z,29.02
2017-12-04T05:56:59.451Z,29.45
2017-12-04T05:59:27.029Z,29.77
2017-12-04T06:01:55.365Z,30.10
2017-12-04T06:04:22.931Z,28.80
2017-12-04T06:06:50.499Z,27.25
2017-12-04T06:09:18.098Z,25.83
2017-12-04T06:11:45.680Z,25.85
2017-12-04T06:14:13.266Z,25.40
2017-12-04T06:16:40.829Z,24.50
2017-12-04T06:19:08.413Z,26.00
2017-12-04T06:21:36.754Z,26.60
2017-12-04T06:24:04.316Z,24.90
2017-12-04T06:26:31.895Z,27.45
2017-12-04T06:28:59.444Z,27.08
2017-12-04T06:31:27.010Z,26.58
2017-12-04T06:33:54.566Z,24.52
2017-12-04T06:36:22.151Z,25.35
2017-12-04T06:38:49.724Z,25.62
2017-12-04T06:41:18.120Z,26.73
2017-12-04T06:43:45.708Z,25.83
2017-12-04T06:46:13.300Z,25.95
2017-12-04T06:48:40.879Z,27.75
2017-12-04T06:51:09.214Z,26.58
2017-12-04T06:53:36.790Z,24.80
2017-12-04T06:56:04.395Z,26.70
2017-12-04T06:58:31.999Z,29.40
2017-12-04T07:00:59.569Z,26.30
2017-12-04T07:03:27.107Z,25.30
2017-12-04T07:05:54.674Z,27.50
2017-12-04T07:08:22.231Z,25.95
2017-12-04T07:10:49.807Z,29.45
2017-12-04T07:13:17.399Z,27.60
2017-12-04T07:15:45.789Z,26.62
2017-12-04T07:18:14.118Z,26.67
2017-12-04T07:20:41.674Z,25.77
2017-12-04T07:23:09.238Z,26.30
2017-12-04T07:25:36.823Z,26.50
2017-12-04T07:28:04.398Z,26.50
2017-12-04T07:30:32.741Z,25.67
2017-12-04T07:33:00.292Z,23.62
2017-12-04T07:35:27.866Z,24.73
2017-12-04T07:37:55.462Z,25.90
2017-12-04T07:40:23.827Z,23.75
2017-12-04T07:42:51.492Z,24.00
2017-12-04T07:45:19.057Z,25.27
2017-12-04T07:47:47.410Z,24.27
2017-12-04T07:50:15.004Z,23.42
2017-12-04T07:52:43.372Z,24.37
2017-12-04T07:55:11.753Z,24.40
2017-12-04T07:57:40.106Z,25.00
2017-12-04T08:00:07.735Z,26.25
2017-12-04T08:02:35.471Z,29.63
2017-12-04T08:05:03.108Z,24.02
2017-12-04T08:07:30.748Z,23.50
2017-12-04T08:09:58.378Z,31.48
2017-12-04T08:12:26.007Z,27.25
2017-12-04T08:14:53.578Z,30.50
2017-12-04T08:17:26.482Z,32.20
2017-12-04T08:19:54.078Z,23.10
2017-12-04T08:22:21.689Z,28.83
2017-12-04T08:24:50.020Z,26.23
2017-12-04T08:27:18.535Z,25.55
2017-12-04T08:29:46.916Z,23.02
2017-12-04T08:32:15.245Z,23.58
2017-12-04T08:34:42.857Z,24.10
2017-12-04T08:37:11.192Z,26.45
2017-12-04T08:39:38.757Z,21.85
2017-12-04T08:42:06.322Z,24.10
2017-12-04T08:44:33.948Z,25.02
2017-12-04T08:47:06.535Z,25.70
2017-12-04T08:49:34.091Z,22.77
2017-12-04T08:52:01.669Z,21.30
2017-12-04T08:54:29.244Z,23.27
2017-12-04T08:56:56.814Z,21.95
2017-12-04T08:59:24.399Z,22.00
2017-12-04T09:01:52.724Z,23.67
2017-12-04T09:04:20.299Z,22.95
2017-12-04T09:06:47.903Z,23.17
2017-12-04T09:09:16.404Z,22.45
2017-12-04T09:11:43.982Z,23.40
2017-12-04T09:14:11.542Z,23.40
2017-12-04T09:16:39.165Z,21.58
2017-12-04T09:19:07.504Z,21.98
2017-12-04T09:21:35.084Z,20.92
2017-12-04T09:24:02.645Z,21.58
2017-12-04T09:26:31.021Z,21.23
2017-12-04T09:28:58.598Z,22.70
2017-12-04T09:31:26.934Z,22.83
2017-12-04T09:33:54.514Z,22.90
2017-12-04T09:36:22.060Z,22.37
2017-12-04T09:38:49.634Z,22.75
2017-12-04T09:41:17.184Z,21.10
2017-12-04T09:43:44.766Z,21.77
2017-12-04T09:46:13.161Z,21.12
2017-12-04T09:48:41.481Z,20.80
2017-12-04T09:51:09.054Z,19.70
2017-12-04T09:53:36.607Z,21.60
2017-12-04T09:56:04.146Z,21.65
2017-12-04T09:58:31.701Z,22.13
2017-12-04T10:00:59.270Z,22.85
2017-12-04T10:03:26.825Z,21.67
2017-12-04T10:05:54.372Z,21.33
2017-12-04T10:08:21.929Z,22.65
2017-12-04T10:10:49.484Z,21.50
2017-12-04T10:13:17.808Z,21.98
2017-12-04T10:15:45.383Z,23.10
2017-12-04T10:18:12.945Z,21.80
2017-12-04T10:20:40.500Z,27.05
2017-12-04T10:23:08.098Z,26.85
2017-12-04T10:25:36.434Z,41.10
2017-12-04T10:28:03.969Z,41.97
2017-12-04T10:30:31.558Z,32.70
2017-12-04T10:32:59.102Z,23.02
2017-12-04T10:35:26.654Z,21.25
2017-12-04T10:37:54.986Z,23.73
2017-12-04T10:40:23.314Z,22.70
2017-12-04T10:42:50.874Z,23.15
2017-12-04T10:45:18.449Z,21.67
2017-12-04T10:47:46.013Z,23.65
2017-12-04T10:50:13.593Z,23.38
2017-12-04T10:52:41.175Z,22.25
2017-12-04T10:55:09.639Z,23.48
2017-12-04T10:57:38.003Z,21.40
2017-12-04T11:00:05.561Z,21.05
2017-12-04T11:02:33.187Z,21.80
2017-12-04T11:05:00.735Z,20.10
2017-12-04T11:07:28.325Z,21.05
2017-12-04T11:09:55.901Z,20.48
2017-12-04T11:12:23.473Z,20.83
2017-12-04T11:14:51.028Z,24.45
2017-12-04T11:17:18.593Z,22.05
2017-12-04T11:19:46.190Z,22.08
2017-12-04T11:22:13.744Z,20.77
2017-12-04T11:24:41.463Z,21.83
2017-12-04T11:27:09.038Z,19.70
2017-12-04T11:29:36.614Z,20.02
2017-12-04T11:32:04.923Z,19.85
2017-12-04T11:34:32.484Z,19.83
2017-12-04T11:37:00.043Z,19.67
2017-12-04T11:39:27.622Z,20.75
2017-12-04T11:41:55.191Z,20.48
2017-12-04T11:44:22.771Z,19.73
2017-12-04T11:46:50.314Z,21.50
2017-12-04T11:49:17.882Z,20.50
2017-12-04T11:51:45.495Z,19.80
2017-12-04T11:54:13.068Z,19.50
2017-12-04T11:56:40.616Z,19.55
2017-12-04T11:59:16.687Z,20.90
2017-12-04T12:01:44.269Z,19.40
2017-12-04T12:04:11.848Z,19.25
2017-12-04T12:06:42.784Z,20.40
2017-12-04T12:09:10.362Z,20.75
2017-12-04T12:11:37.920Z,20.10
2017-12-04T12:14:05.514Z,21.10
2017-12-04T12:16:33.106Z,21.08
2017-12-04T12:19:00.695Z,22.35
2017-12-04T12:21:28.830Z,21.12
2017-12-04T12:23:56.480Z,21.17
2017-12-04T12:26:28.220Z,20.45
2017-12-04T12:28:56.599Z,18.90
2017-12-04T12:31:24.916Z,20.62
2017-12-04T12:33:52.504Z,20.80
2017-12-04T12:36:20.067Z,21.05
2017-12-04T12:38:47.910Z,21.67
2017-12-04T12:41:15.682Z,21.75
2017-12-04T12:43:43.260Z,21.12
2017-12-04T12:46:10.834Z,20.37
2017-12-04T12:48:38.408Z,20.88
2017-12-04T12:51:06.762Z,21.83
2017-12-04T12:53:34.317Z,22.23
2017-12-04T12:56:01.936Z,22.25
2017-12-04T12:58:29.477Z,21.42
2017-12-04T13:00:57.814Z,21.30
2017-12-04T13:03:25.371Z,21.05
2017-12-04T13:05:52.961Z,24.65
2017-12-04T13:08:21.291Z,21.95
2017-12-04T13:10:48.875Z,22.37
2017-12-04T13:13:16.450Z,21.60
2017-12-04T13:15:44.035Z,22.40
2017-12-04T13:18:12.385Z,23.40
2017-12-04T13:20:40.412Z,30.02
2017-12-04T13:23:08.045Z,22.17
2017-12-04T13:25:38.161Z,34.92
2017-12-04T13:28:05.728Z,32.22
2017-12-04T13:30:34.055Z,28.27
2017-12-04T13:33:13.520Z,24.58
2017-12-04T13:35:53.435Z,23.45
2017-12-04T13:38:21.026Z,23.62
2017-12-04T13:40:48.612Z,31.92
2017-12-04T13:43:16.954Z,29.95
2017-12-04T13:45:44.727Z,31.73
2017-12-04T13:48:12.360Z,34.17
2017-12-04T13:50:39.930Z,27.55
2017-12-04T13:53:07.509Z,23.35
2017-12-04T13:55:35.071Z,33.90
2017-12-04T13:58:02.653Z,25.45
2017-12-04T14:00:30.969Z,25.98
2017-12-04T14:02:58.534Z,30.88
2017-12-04T14:05:27.003Z,42.80
2017-12-04T14:07:54.573Z,38.15
2017-12-04T14:10:22.964Z,28.40
2017-12-04T14:12:50.533Z,28.25
2017-12-04T14:15:18.081Z,24.10
2017-12-04T14:17:46.016Z,23.23
2017-12-04T14:20:14.948Z,22.70
2017-12-04T14:22:43.148Z,21.62
2017-12-04T14:25:10.725Z,24.02
2017-12-04T14:27:39.073Z,23.83
2017-12-04T14:30:07.340Z,26.75
2017-12-04T14:32:35.010Z,25.55
2017-12-04T14:35:02.605Z,25.30
2017-12-04T14:37:30.945Z,26.50
2017-12-04T14:39:58.516Z,24.12
2017-12-04T14:42:26.314Z,23.40
2017-12-04T14:44:55.217Z,25.00
2017-12-04T14:47:23.533Z,23.00
2017-12-04T14:49:51.077Z,22.10
2017-12-04T14:52:18.673Z,21.30
2017-12-04T14:54:46.610Z,21.77
2017-12-04T14:57:14.198Z,23.33
2017-12-04T14:59:41.756Z,22.20
2017-12-04T15:02:09.364Z,23.27
2017-12-04T15:04:37.682Z,23.00
2017-12-04T15:07:05.248Z,22.55
2017-12-04T15:09:32.825Z,20.95
2017-12-04T15:12:00.382Z,21.80
2017-12-04T15:14:27.996Z,23.12
2017-12-04T15:16:56.359Z,36.80
2017-12-04T15:19:24.866Z,43.38
2017-12-04T15:21:53.215Z,30.83
2017-12-04T15:24:21.545Z,30.58
2017-12-04T15:26:49.112Z,24.92
2017-12-04T15:29:16.994Z,25.70
2017-12-04T15:31:44.667Z,37.45
2017-12-04T15:34:12.270Z,27.25
2017-12-04T15:36:39.871Z,26.45
2017-12-04T15:39:07.422Z,27.50
2017-12-04T15:41:35.080Z,36.83
2017-12-04T15:44:02.699Z,30.67
2017-12-04T15:46:31.080Z,25.40
2017-12-04T15:48:58.652Z,24.45
2017-12-04T15:51:27.786Z,26.55
2017-12-04T15:53:55.500Z,24.75
2017-12-04T15:56:23.103Z,28.73
2017-12-04T15:58:50.644Z,25.40
2017-12-04T16:01:18.246Z,25.52
2017-12-04T16:03:45.919Z,24.23
2017-12-04T16:06:13.487Z,24.10
2017-12-04T16:08:41.081Z,24.95
2017-12-04T16:11:09.388Z,23.98
2017-12-04T16:13:38.146Z,24.75
2017-12-04T16:16:05.961Z,23.33
2017-12-04T16:18:33.566Z,23.20
2017-12-04T16:21:01.149Z,22.35
2017-12-04T16:23:30.232Z,21.90
2017-12-04T16:25:57.933Z,22.35
2017-12-04T16:28:26.361Z,26.17
2017-12-04T16:30:54.100Z,26.87
2017-12-04T16:35:57.813Z,23.15
2017-12-04T16:38:25.876Z,22.17
2017-12-04T16:40:53.487Z,22.15
2017-12-04T16:43:21.130Z,22.37
2017-12-04T16:45:48.794Z,22.40
2017-12-04T16:48:17.091Z,23.50
2017-12-04T16:50:45.716Z,22.52
2017-12-04T16:53:13.317Z,22.48
2017-12-04T16:55:40.927Z,22.98
2017-12-04T16:58:08.538Z,20.92
2017-12-04T17:00:38.118Z,24.50
2017-12-04T17:03:06.172Z,23.80
2017-12-04T17:05:33.847Z,22.75
2017-12-04T17:08:01.421Z,24.98
2017-12-04T17:10:28.990Z,23.75
2017-12-04T17:12:56.765Z,23.73
2017-12-04T17:15:24.369Z,24.02
2017-12-04T17:17:51.962Z,43.63
2017-12-04T17:20:19.556Z,29.40
2017-12-04T17:22:47.909Z,35.33
2017-12-04T17:25:15.509Z,30.85
2017-12-04T17:27:43.930Z,28.17
2017-12-04T17:30:11.510Z,24.87
2017-12-04T17:32:39.081Z,25.70
2017-12-04T17:35:06.675Z,27.17
2017-12-04T17:37:35.010Z,29.50
2017-12-04T17:40:02.582Z,30.88
2017-12-04T17:42:30.154Z,25.77
2017-12-04T17:44:57.702Z,27.50
2017-12-04T17:47:25.453Z,28.98
2017-12-04T17:49:53.017Z,28.50
2017-12-04T17:52:20.597Z,26.05
2017-12-04T17:54:48.151Z,29.20
2017-12-04T17:57:16.075Z,28.80
2017-12-04T17:59:43.737Z,24.65
2017-12-04T18:04:53.147Z,27.37
2017-12-04T18:07:21.837Z,26.02
2017-12-04T18:09:53.565Z,27.10
2017-12-04T18:12:25.184Z,25.42
2017-12-04T18:14:55.172Z,24.33
2017-12-04T18:17:23.562Z,26.17
2017-12-04T18:19:51.939Z,27.85
2017-12-04T18:22:20.273Z,24.92
2017-12-04T18:24:47.857Z,24.87
2017-12-04T18:27:16.036Z,22.67
2017-12-04T18:29:44.796Z,24.00
2017-12-04T18:32:15.048Z,24.77
2017-12-04T18:34:43.405Z,24.90
2017-12-04T18:37:10.993Z,23.17
2017-12-04T18:39:39.362Z,22.00
2017-12-04T18:42:07.059Z,22.62
2017-12-04T18:44:34.634Z,20.90
2017-12-04T18:47:02.205Z,22.73
2017-12-04T18:49:29.770Z,22.05
2017-12-04T18:51:57.742Z,21.90
2017-12-04T18:54:25.415Z,22.23
2017-12-04T18:56:53.298Z,21.52
2017-12-04T18:59:22.038Z,22.92
2017-12-04T19:01:52.461Z,22.87
2017-12-04T19:04:22.929Z,23.85
2017-12-04T19:07:03.550Z,23.75
2017-12-04T19:10:26.300Z,21.92
2017-12-04T19:12:57.290Z,20.52
2017-12-04T19:15:27.877Z,21.25
2017-12-04T19:20:54.052Z,22.05
2017-12-04T19:23:28.464Z,22.15
2017-12-04T19:26:07.790Z,22.62
2017-12-04T19:28:36.699Z,21.25
2017-12-04T19:31:04.272Z,30.20
2017-12-04T19:33:31.880Z,25.45
2017-12-04T19:36:08.961Z,36.03
2017-12-04T19:38:45.815Z,41.95
2017-12-04T19:43:52.430Z,34.22
2017-12-04T19:46:22.666Z,48.13
2017-12-04T19:48:50.880Z,51.10
2017-12-04T19:51:20.594Z,26.30
2017-12-04T19:53:52.039Z,27.35
2017-12-04T19:56:21.314Z,63.30
2017-12-04T19:58:52.350Z,38.17
2017-12-04T20:01:21.664Z,36.08
2017-12-04T20:03:50.139Z,29.40
2017-12-04T20:06:17.725Z,26.92
2017-12-04T20:08:46.047Z,25.62
2017-12-04T20:11:16.788Z,26.87
2017-12-04T20:13:44.596Z,28.33
2017-12-04T20:16:16.008Z,27.75
2017-12-04T20:18:45.624Z,25.75
2017-12-04T20:21:16.352Z,27.35
2017-12-04T20:23:47.115Z,31.35
2017-12-04T20:26:15.835Z,27.77
2017-12-04T20:28:46.484Z,28.58
2017-12-04T20:31:17.211Z,33.28
2017-12-04T20:33:46.089Z,31.60
2017-12-04T20:36:16.429Z,28.48
2017-12-04T20:38:45.692Z,28.60
2017-12-04T20:41:15.507Z,30.58
2017-12-04T20:43:46.859Z,25.75
2017-12-04T20:46:15.189Z,29.33
2017-12-04T20:48:43.198Z,37.35
2017-12-04T20:51:14.024Z,45.08
2017-12-04T20:53:44.090Z,32.38
2017-12-04T20:56:13.641Z,45.05
2017-12-04T20:58:44.390Z,41.97
2017-12-04T21:01:13.594Z,39.92
2017-12-04T21:03:44.546Z,32.42
2017-12-04T21:06:13.963Z,40.40
2017-12-04T21:09:02.434Z,36.63
2017-12-04T21:11:53.506Z,29.42
2017-12-04T21:14:33.750Z,39.90
2017-12-04T21:17:14.975Z,52.30
2017-12-04T21:19:43.422Z,30.30
2017-12-04T21:22:15.008Z,28.83
2017-12-04T21:24:44.035Z,37.30
2017-12-04T21:27:13.325Z,28.65
2017-12-04T21:29:43.308Z,30.40
2017-12-04T21:32:10.917Z,27.40
2017-12-04T21:34:38.514Z,31.20
2017-12-04T21:37:10.552Z,42.05
2017-12-04T21:39:38.194Z,34.80
2017-12-04T21:42:05.790Z,33.60
2017-12-04T21:44:35.342Z,54.53
2017-12-04T21:47:04.887Z,23.60
2017-12-04T21:49:36.522Z,34.83
2017-12-04T21:52:05.118Z,27.90
2017-12-04T21:54:33.961Z,25.33
2017-12-04T21:57:06.336Z,26.62
2017-12-04T21:59:33.905Z,26.42
2017-12-04T22:02:03.614Z,30.15
2017-12-04T22:04:34.969Z,30.95
2017-12-04T22:07:05.505Z,28.85
2017-12-04T22:09:36.061Z,30.88
2017-12-04T22:12:04.366Z,28.55
2017-12-04T22:14:34.581Z,27.80
2017-12-04T22:17:05.178Z,24.63
2017-12-04T22:19:33.928Z,25.75
2017-12-04T22:22:04.855Z,26.92
2017-12-04T22:24:33.624Z,28.73
2017-12-04T22:27:04.610Z,22.70
2017-12-04T22:29:32.223Z,22.08
2017-12-04T22:32:00.625Z,22.52
2017-12-04T22:34:28.849Z,21.80
2017-12-04T22:36:56.416Z,24.05
2017-12-04T22:39:25.114Z,28.55
2017-12-04T22:41:55.689Z,24.08
2017-12-04T22:44:25.382Z,25.67
2017-12-04T22:46:53.747Z,24.48
2017-12-04T22:49:23.510Z,23.52
2017-12-04T22:51:54.038Z,26.58
2017-12-04T22:54:23.712Z,24.98
2017-12-04T22:56:53.910Z,24.05
2017-12-04T22:59:23.403Z,23.75
2017-12-04T23:01:54.348Z,24.45
2017-12-04T23:04:23.200Z,20.75
2017-12-04T23:06:50.800Z,25.62
2017-12-04T23:09:18.385Z,23.85
2017-12-04T23:11:46.728Z,20.90
2017-12-04T23:14:14.295Z,21.10
2017-12-04T23:16:41.861Z,21.80
2017-12-04T23:19:09.426Z,22.15
2017-12-04T23:21:37.010Z,23.25
2017-12-04T23:24:05.334Z,23.17
2017-12-04T23:26:32.909Z,21.15
2017-12-04T23:29:00.494Z,23.25
2017-12-04T23:31:28.087Z,23.58
2017-12-04T23:33:55.663Z,25.73
2017-12-04T23:36:23.261Z,22.70
2017-12-04T23:38:50.830Z,23.87
2017-12-04T23:41:18.407Z,24.35
2017-12-04T23:43:46.746Z,22.08
2017-12-04T23:46:14.321Z,22.42
2017-12-04T23:48:41.880Z,21.87
2017-12-04T23:51:09.443Z,21.65
2017-12-04T23:53:37.007Z,20.80
2017-12-04T23:56:04.665Z,20.70
2017-12-04T23:58:32.377Z,20.67
